Terminal Aerodrome Forecast
Issued by NWS Wilmington, OH

Current Version | Previous Version | Text Only | Print | Product List | Glossary Off
Versions: 1 2 3 4 5 6 7 8 9 10 11 12 13 14 15 16 17 18 19 20 21 22 23

000
FTUS41 KILN 241026 AAA
TAFDAY
TAF AMD
KDAY 241026Z 2410/2506 12007KT 6SM BR BKN004
     FM241500 13006KT P6SM VCSH OVC050
     FM242000 12007KT 4SM SHRA OVC025
     FM250300 09006KT 4SM BR VCSH OVC015=

USA.gov is the U.S. government's official web portal to all federal, state and local government web resources and services.